Time;durP1;ratioP1;P1;durP2;ratioP2;P2;SDS_P1;SDS_P2;PMS_P1;PMS_P2;Temp;Humidity;BMP_temperature;BMP_pressure;BME280_temperature;BME280_humidity;BME280_pressure;Samples;Min_cycle;Max_cycle;Signal;HPM_P1;HPM_P2
2023/02/03 00:01:43;;;;;;;4.57;3.05;;;;;;;3.92;65.94;100276.88;5072705;28;20032;-36
2023/02/03 00:04:09;;;;;;;5.15;2.30;;;;;;;3.90;66.26;100285.94;5091335;28;20028;-37
2023/02/03 00:06:34;;;;;;;7.50;4.15;;;;;;;3.86;66.62;100258.25;5091153;28;20024;-37
2023/02/03 00:09:00;;;;;;;4.85;2.63;;;;;;;3.88;65.59;100257.09;5090721;28;20047;-37
2023/02/03 00:11:29;;;;;;;3.97;2.10;;;;;;;3.99;64.94;100256.72;5090462;28;20039;-37
2023/02/03 00:13:54;;;;;;;;;;;;;;;4.19;64.98;100264.25;5091206;28;20024;-37
2023/02/03 00:16:20;;;;;;;4.70;2.30;;;;;;;4.26;64.83;100277.56;5091120;28;19970;-37
2023/02/03 00:18:45;;;;;;;6.88;2.42;;;;;;;4.25;64.64;100303.16;5091016;28;20471;-37
2023/02/03 00:21:13;;;;;;;4.25;1.73;;;;;;;4.20;64.10;100279.91;5090978;28;20110;-37
2023/02/03 00:23:39;;;;;;;3.78;1.67;;;;;;;4.30;63.93;100274.41;5072475;28;20028;-37
2023/02/03 00:26:09;;;;;;;4.65;2.15;;;;;;;4.30;64.39;100274.41;5090652;28;20043;-36
2023/02/03 00:28:35;;;;;;;5.10;2.47;;;;;;;4.23;64.65;100273.47;5090486;28;20039;-37
2023/02/03 00:31:00;;;;;;;6.38;2.65;;;;;;;4.18;65.34;100265.22;5091160;28;20470;-37
2023/02/03 00:33:26;;;;;;;5.10;2.38;;;;;;;4.49;64.24;100288.19;5090740;28;20464;-37
2023/02/03 00:35:51;;;;;;;6.15;2.40;;;;;;;4.46;64.27;100307.03;5090806;28;20479;-37
2023/02/03 00:38:16;;;;;;;5.43;2.42;;;;;;;4.40;65.10;100300.59;5055899;28;20419;-37
2023/02/03 00:40:42;;;;;;;6.30;1.92;;;;;;;4.28;65.25;100291.44;5090002;28;20431;-37
2023/02/03 00:43:07;;;;;;;5.10;2.55;;;;;;;4.33;65.26;100286.44;5090228;28;20020;-37
2023/02/03 00:45:33;;;;;;;4.88;2.83;;;;;;;4.36;64.79;100279.00;5090200;28;20032;-37
2023/02/03 00:47:58;;;;;;;6.10;2.20;;;;;;;4.37;65.28;100275.38;5090730;28;20025;-37
2023/02/03 00:50:26;;;;;;;5.03;2.58;;;;;;;4.43;65.99;100282.59;5072165;28;20491;-36
2023/02/03 00:52:51;;;;;;;5.38;2.38;;;;;;;4.62;65.09;100283.97;5090283;28;20024;-37
2023/02/03 00:55:16;;;;;;;4.75;2.50;;;;;;;4.51;64.55;100249.22;5089957;28;20047;-38
2023/02/03 00:57:42;;;;;;;6.10;2.90;;;;;;;4.57;64.77;100274.91;5089934;28;20035;-36
2023/02/03 01:00:11;;;;;;;6.05;2.90;;;;;;;4.50;65.16;100276.63;5089940;28;20032;-35
2023/02/03 01:02:41;;;;;;;5.40;2.30;;;;;;;4.42;65.48;100288.06;5071780;28;20035;-37
2023/02/03 01:05:07;;;;;;;6.68;2.45;;;;;;;4.56;64.65;100294.41;5071902;28;20035;-37
2023/02/03 01:07:32;;;;;;;3.90;2.00;;;;;;;4.47;65.05;100284.88;5089709;28;20024;-36
2023/02/03 01:09:58;;;;;;;5.78;3.05;;;;;;;4.47;65.70;100290.16;5089874;28;20093;-36
2023/02/03 01:12:23;;;;;;;6.15;2.65;;;;;;;4.32;65.54;100266.31;5089897;28;20020;-37
2023/02/03 01:14:48;;;;;;;4.07;2.03;;;;;;;4.42;64.77;100285.41;5089840;28;20036;-37
2023/02/03 01:17:14;;;;;;;5.18;2.35;;;;;;;4.40;64.26;100243.31;5089652;28;20478;-37
2023/02/03 01:19:39;;;;;;;5.32;2.83;;;;;;;4.59;65.22;100286.94;5090099;28;20032;-37
2023/02/03 01:22:05;;;;;;;5.78;2.78;;;;;;;4.64;65.12;100291.72;5089806;28;20024;-37
2023/02/03 01:24:30;;;;;;;5.22;2.47;;;;;;;4.64;64.24;100289.09;5089500;28;20036;-37
2023/02/03 01:26:56;;;;;;;6.80;2.80;;;;;;;4.66;65.27;100295.03;5089483;28;20093;-36
2023/02/03 01:29:21;;;;;;;6.30;3.05;;;;;;;4.57;64.69;100301.34;5089354;28;20067;-37
2023/02/03 01:31:47;;;;;;;6.75;2.72;;;;;;;4.60;65.16;100298.38;5089668;28;20491;-37
2023/02/03 01:34:15;;;;;;;6.28;2.65;;;;;;;4.47;64.89;100279.59;5089411;28;20119;-37
2023/02/03 01:36:41;;;;;;;5.47;2.58;;;;;;;4.57;64.89;100290.78;5089477;28;20821;-36
2023/02/03 01:39:06;;;;;;;6.30;3.35;;;;;;;4.54;64.01;100275.28;5089158;28;20059;-37
2023/02/03 01:41:34;;;;;;;4.00;2.30;;;;;;;4.46;64.81;100264.78;5088859;28;20050;-37
2023/02/03 01:44:01;;;;;;;5.97;2.50;;;;;;;4.57;64.67;100290.78;5089304;28;20529;-37
2023/02/03 01:46:47;;;;;;;4.90;2.45;;;;;;;4.54;64.83;100277.94;5089343;28;20024;-37
2023/02/03 01:49:25;;;;;;;5.75;2.85;;;;;;;4.51;65.52;100276.44;5089203;28;20487;-37
2023/02/03 01:51:52;;;;;;;7.25;3.15;;;;;;;4.49;65.35;100290.81;5089530;28;20085;-37
2023/02/03 01:54:46;;;;;;;6.03;2.90;;;;;;;4.58;65.81;100295.88;5089001;28;20028;-36
2023/02/03 01:57:18;;;;;;;5.07;2.45;;;;;;;4.50;66.34;100297.75;5088133;28;20051;-36
2023/02/03 01:59:45;;;;;;;5.70;2.97;;;;;;;4.49;66.24;100290.81;5092282;28;20077;-37
2023/02/03 02:02:14;;;;;;;7.88;3.17;;;;;;;4.43;66.23;100289.69;5095825;28;20495;-36
2023/02/03 02:04:52;;;;;;;5.40;2.67;;;;;;;4.58;65.34;100297.72;5095814;28;20186;-37
2023/02/03 02:07:18;;;;;;;5.88;3.28;;;;;;;4.47;66.29;100284.88;5096013;28;20108;-37
2023/02/03 02:09:45;;;;;;;6.43;3.03;;;;;;;4.42;66.35;100283.59;5077703;28;20081;-37
2023/02/03 02:12:13;;;;;;;5.63;2.78;;;;;;;4.33;65.66;100262.66;5095946;28;20032;-37
2023/02/03 02:14:40;;;;;;;4.78;2.30;;;;;;;4.41;66.82;100283.75;5095652;28;20099;-38
2023/02/03 02:17:09;;;;;;;3.63;2.17;;;;;;;4.51;66.57;100302.03;5095703;28;20027;-36
2023/02/03 02:20:04;;;;;;;;;;;;;;;4.43;66.89;100301.09;5096057;28;20121;-37
2023/02/03 02:22:38;;;;;;;4.72;2.38;;;;;;;4.15;67.92;100318.38;5095959;28;19912;-37
2023/02/03 02:25:34;;;;;;;5.65;2.60;;;;;;;4.26;67.36;100325.09;5095702;28;20108;-36
2023/02/03 02:28:58;;;;;;;5.65;2.90;;;;;;;4.34;66.70;100323.22;5095861;28;20071;-37
2023/02/03 02:31:38;;;;;;;5.63;2.70;;;;;;;4.44;66.56;100323.03;5052456;28;20037;-37
2023/02/03 02:34:10;;;;;;;6.50;2.83;;;;;;;4.52;66.00;100324.81;5052936;28;20061;-37
2023/02/03 02:36:48;;;;;;;4.10;2.40;;;;;;;4.30;65.81;100303.44;5084503;28;20148;-37
2023/02/03 02:39:22;;;;;;;5.97;2.92;;;;;;;4.37;65.25;100307.06;5095257;28;20055;-38
2023/02/03 02:42:07;;;;;;;4.35;2.40;;;;;;;4.42;65.53;100333.75;5095447;28;20140;-36
2023/02/03 02:44:38;;;;;;;5.25;2.65;;;;;;;4.15;66.62;100307.81;5096009;28;20511;-37
2023/02/03 02:47:15;;;;;;;3.60;1.80;;;;;;;4.34;66.33;100332.97;5095404;28;20051;-37
2023/02/03 02:49:49;;;;;;;4.88;2.42;;;;;;;4.43;65.34;100332.78;5095597;28;20734;-36
2023/02/03 02:52:17;;;;;;;5.40;2.78;;;;;;;4.41;64.87;100318.94;5095313;28;20109;-37
2023/02/03 02:54:50;;;;;;;4.70;1.97;;;;;;;4.36;65.59;100321.25;5095486;28;20026;-36
2023/02/03 02:57:18;;;;;;;5.72;2.70;;;;;;;4.51;66.04;100339.00;5095300;28;20262;-37
2023/02/03 02:59:45;;;;;;;5.28;2.50;;;;;;;4.41;65.38;100328.66;5077297;28;20139;-37
2023/02/03 03:02:10;;;;;;;4.38;1.92;;;;;;;4.50;66.38;100355.84;5095245;28;20039;-37
2023/02/03 03:04:39;;;;;;;5.40;2.35;;;;;;;4.45;66.31;100359.00;5095330;28;20110;-37
2023/02/03 03:07:10;;;;;;;;;;;;;;;4.48;66.82;100361.31;5095610;28;20024;-37
2023/02/03 03:09:43;;;;;;;3.53;1.95;;;;;;;4.33;67.27;100353.28;5095250;28;19908;-37
2023/02/03 03:12:20;;;;;;;4.22;1.75;;;;;;;4.40;66.87;100374.53;5091182;28;20031;-36
2023/02/03 03:14:52;;;;;;;3.85;2.20;;;;;;;4.35;68.07;100382.97;5091869;28;20028;-36
2023/02/03 03:17:25;;;;;;;3.47;1.90;;;;;;;4.26;68.02;100352.31;5091595;28;20154;-37
2023/02/03 03:20:04;;;;;;;4.50;2.65;;;;;;;4.34;67.98;100381.31;5092463;28;20073;-36
2023/02/03 03:22:35;;;;;;;3.45;1.65;;;;;;;4.23;68.91;100373.78;5091888;28;20514;-36
2023/02/03 03:25:12;;;;;;;5.82;2.20;;;;;;;4.12;69.10;100351.19;5091753;28;20719;-37
2023/02/03 03:27:41;;;;;;;4.57;2.25;;;;;;;4.29;69.12;100362.53;5091677;28;20028;-37
2023/02/03 03:30:34;;;;;;;5.43;2.10;;;;;;;4.27;69.13;100375.09;5091988;28;20024;-36
2023/02/03 03:33:01;;;;;;;3.75;1.92;;;;;;;4.12;69.92;100353.00;5090109;28;20048;-37
2023/02/03 03:35:42;;;;;;;3.47;2.03;;;;;;;4.14;69.89;100353.66;5091174;28;20040;-37
2023/02/03 03:38:36;;;;;;;3.33;1.80;;;;;;;3.93;70.45;100326.03;5091602;28;20043;-36
2023/02/03 03:41:12;;;;;;;4.32;2.08;;;;;;;3.91;70.63;100327.19;5065946;28;20427;-37
2023/02/03 03:43:42;;;;;;;5.38;2.28;;;;;;;3.91;71.12;100343.84;5091374;28;20036;-36
2023/02/03 03:46:22;;;;;;;3.83;1.73;;;;;;;4.05;71.57;100375.81;5091598;28;20073;-37
2023/02/03 03:48:53;;;;;;;4.72;2.20;;;;;;;4.01;71.53;100377.97;5091171;28;20035;-37
2023/02/03 03:51:28;;;;;;;3.53;2.10;;;;;;;4.00;71.64;100379.78;5091282;28;20027;-37
2023/02/03 03:53:59;;;;;;;3.50;1.88;;;;;;;4.03;71.47;100389.16;5091117;28;20016;-37
2023/02/03 03:56:30;;;;;;;6.25;2.63;;;;;;;4.01;71.37;100383.25;5091420;28;20020;-36
2023/02/03 03:58:58;;;;;;;4.18;1.95;;;;;;;4.02;70.55;100388.34;5090982;28;20032;-36
2023/02/03 04:01:24;;;;;;;4.85;2.38;;;;;;;4.09;70.99;100390.31;5091134;28;20032;-37
2023/02/03 04:04:04;;;;;;;4.07;2.00;;;;;;;4.05;70.76;100402.22;5091236;28;20556;-37
2023/02/03 04:06:30;;;;;;;4.57;2.33;;;;;;;3.72;71.49;100358.22;5091129;28;20020;-37
2023/02/03 04:08:55;;;;;;;3.63;1.95;;;;;;;4.03;70.84;100384.72;5091133;28;20404;-36
2023/02/03 04:14:04;;;;;;;3.08;1.67;;;;;;;3.79;71.61;100361.00;5090759;28;20089;-37
2023/02/03 04:16:30;;;;;;;3.95;2.20;;;;;;;3.73;71.81;100366.94;5091170;28;20111;-37
2023/02/03 04:18:56;;;;;;;3.97;1.85;;;;;;;3.69;71.74;100363.00;5090942;28;20066;-36
2023/02/03 04:21:21;;;;;;;2.22;1.42;;;;;;;3.77;71.54;100389.38;5090433;28;20039;-37
2023/02/03 04:23:47;;;;;;;3.88;2.20;;;;;;;3.70;72.25;100391.84;5090449;28;20023;-36
2023/02/03 04:26:12;;;;;;;4.25;2.10;;;;;;;3.87;71.69;100389.19;5090435;28;20028;-37
2023/02/03 04:28:38;;;;;;;3.55;1.90;;;;;;;3.90;71.71;100379.09;5072747;28;20491;-37
2023/02/03 04:31:03;;;;;;;3.35;1.38;;;;;;;3.70;71.18;100368.13;5090622;28;20020;-36
2023/02/03 04:33:28;;;;;;;4.57;2.35;;;;;;;3.79;71.26;100366.28;5090352;28;20153;-37
2023/02/03 04:35:54;;;;;;;3.72;2.05;;;;;;;3.74;71.04;100373.84;5090364;28;20514;-37
2023/02/03 04:38:19;;;;;;;3.53;2.00;;;;;;;3.87;70.54;100413.75;5090309;28;20487;-37
2023/02/03 04:40:45;;;;;;;4.68;1.88;;;;;;;3.83;70.84;100415.91;5090276;28;20089;-37
2023/02/03 04:43:11;;;;;;;2.63;1.38;;;;;;;3.68;70.25;100380.66;5090449;28;20036;-37
2023/02/03 04:45:39;;;;;;;6.63;2.47;;;;;;;3.73;70.90;100406.50;5090289;28;20031;-37
2023/02/03 04:48:04;;;;;;;3.70;2.10;;;;;;;3.95;70.25;100408.47;5089944;28;20027;-37
2023/02/03 04:50:30;;;;;;;4.30;2.40;;;;;;;3.87;70.24;100426.94;5090209;28;20081;-36
2023/02/03 04:52:58;;;;;;;4.88;2.22;;;;;;;3.78;70.71;100418.22;5089851;28;20027;-37
2023/02/03 04:55:24;;;;;;;4.18;2.25;;;;;;;3.70;70.78;100410.31;5071443;28;20020;-37
2023/02/03 04:57:57;;;;;;;3.30;1.90;;;;;;;3.71;71.39;100421.69;5090131;28;20032;-36
2023/02/03 05:00:23;;;;;;;4.80;2.65;;;;;;;3.55;71.46;100410.13;5090410;28;20028;-36
2023/02/03 05:02:48;;;;;;;4.50;2.03;;;;;;;3.59;71.51;100434.38;5089863;28;20420;-36
2023/02/03 05:05:13;;;;;;;6.25;2.38;;;;;;;3.58;71.33;100438.81;5089650;28;20024;-35
2023/02/03 05:07:39;;;;;;;5.80;2.40;;;;;;;3.70;71.23;100451.66;5089722;28;20036;-37
2023/02/03 05:10:05;;;;;;;4.40;2.05;;;;;;;3.58;71.73;100438.00;5089410;28;20039;-37
2023/02/03 05:12:30;;;;;;;4.30;2.50;;;;;;;3.54;70.92;100429.59;5089996;28;20032;-36
2023/02/03 05:14:55;;;;;;;5.45;2.42;;;;;;;3.65;70.72;100444.25;5089477;28;20031;-37
2023/02/03 05:17:21;;;;;;;5.25;2.33;;;;;;;3.78;70.62;100464.88;5089494;28;20170;-38
2023/02/03 05:19:46;;;;;;;5.35;3.28;;;;;;;3.81;70.02;100443.44;5071698;28;20024;-37
2023/02/03 05:22:12;;;;;;;5.93;3.20;;;;;;;3.89;69.00;100440.81;5071465;28;20024;-37
2023/02/03 05:24:37;;;;;;;4.97;2.90;;;;;;;3.74;70.18;100453.84;5089332;28;20415;-37
2023/02/03 05:27:02;;;;;;;4.03;2.25;;;;;;;3.78;69.61;100459.59;5089715;28;20024;-37
2023/02/03 05:29:28;;;;;;;3.85;2.55;;;;;;;3.80;69.88;100468.16;5089423;28;20028;-37
2023/02/03 05:31:53;;;;;;;4.13;2.00;;;;;;;3.65;70.26;100457.44;5071225;28;20020;-38
2023/02/03 05:34:19;;;;;;;4.78;2.50;;;;;;;3.41;70.57;100447.69;5088773;28;20024;-37
2023/02/03 05:36:44;;;;;;;4.45;2.22;;;;;;;3.51;70.33;100474.72;5089487;28;20035;-37
2023/02/03 05:39:09;;;;;;;5.32;2.38;;;;;;;3.48;70.31;100463.72;5088971;28;20056;-37
2023/02/03 05:41:53;;;;;;;5.60;3.20;;;;;;;3.75;70.23;100489.78;5088986;28;20020;-37
2023/02/03 05:44:23;;;;;;;6.10;3.08;;;;;;;3.65;70.24;100491.75;5089535;28;20032;-37
2023/02/03 05:46:50;;;;;;;5.00;2.50;;;;;;;3.66;70.20;100497.81;5089161;28;20024;-37
2023/02/03 05:49:16;;;;;;;5.20;2.90;;;;;;;3.45;70.76;100466.66;5088888;28;20089;-36
2023/02/03 05:51:42;;;;;;;4.28;2.33;;;;;;;3.53;69.84;100493.84;5070693;28;20527;-37
2023/02/03 05:54:07;;;;;;;5.68;2.50;;;;;;;3.58;70.66;100502.13;5089294;28;20031;-36
2023/02/03 05:56:34;;;;;;;5.82;2.50;;;;;;;3.62;70.29;100506.09;5089131;28;20491;-37
2023/02/03 05:59:01;;;;;;;3.53;2.13;;;;;;;3.76;70.16;100519.59;5088991;28;20415;-36
2023/02/03 06:01:27;;;;;;;5.70;3.03;;;;;;;3.60;70.66;100510.69;5089062;28;20052;-37
2023/02/03 06:03:52;;;;;;;5.78;2.97;;;;;;;3.63;70.32;100507.72;5088924;28;20098;-37
2023/02/03 06:06:18;;;;;;;10.45;6.25;;;;;;;3.74;69.80;100513.66;5089181;28;20031;-35
2023/02/03 06:08:43;;;;;;;11.90;6.03;;;;;;;3.98;69.51;100555.09;5070984;28;20036;-37
2023/02/03 06:11:09;;;;;;;12.88;6.05;;;;;;;3.98;69.20;100545.38;5089229;28;20085;-36
2023/02/03 06:13:34;;;;;;;5.72;2.67;;;;;;;4.08;68.82;100563.66;5089179;28;20419;-37
2023/02/03 06:16:00;;;;;;;6.00;2.90;;;;;;;4.02;69.30;100546.69;5089024;28;20705;-37
2023/02/03 06:18:28;;;;;;;7.53;3.58;;;;;;;4.12;69.40;100569.44;5088971;28;20024;-37
2023/02/03 06:20:54;;;;;;;15.05;6.03;;;;;;;4.24;68.32;100568.13;5088969;28;20028;-37
2023/02/03 06:23:19;;;;;;;10.68;5.97;;;;;;;4.22;68.71;100567.47;5088980;28;20502;-37
2023/02/03 06:25:47;;;;;;;5.30;2.83;;;;;;;4.05;68.25;100547.38;5089193;28;20115;-37
2023/02/03 06:28:13;;;;;;;;;;;;;;;4.17;68.79;100577.72;5089412;28;20606;-37
2023/02/03 06:30:38;;;;;;;6.03;3.42;;;;;;;4.03;68.34;100564.16;5088689;28;20023;-37
2023/02/03 06:33:04;;;;;;;10.27;5.35;;;;;;;4.09;69.06;100567.16;5088664;28;20491;-37
2023/02/03 06:35:29;;;;;;;5.50;3.15;;;;;;;4.21;67.73;100586.97;5088011;28;20040;-36
2023/02/03 06:37:55;;;;;;;9.15;4.97;;;;;;;4.14;68.33;100575.41;5088926;28;20024;-37
2023/02/03 06:40:20;;;;;;;17.00;7.55;;;;;;;4.27;68.35;100575.75;5088753;28;20052;-37
2023/02/03 06:42:47;;;;;;;12.75;6.10;;;;;;;4.30;68.20;100591.25;5088438;28;20031;-37
2023/02/03 06:45:13;;;;;;;18.20;7.60;;;;;;;4.36;68.66;100589.75;5089197;28;20119;-37
2023/02/03 06:47:40;;;;;;;23.98;9.40;;;;;;;4.54;67.95;100600.16;5092359;28;20020;-38
2023/02/03 06:50:10;;;;;;;18.25;6.43;;;;;;;4.45;68.22;100604.59;5092547;28;20024;-37
2023/02/03 06:52:35;;;;;;;12.82;6.07;;;;;;;4.34;68.31;100613.69;5092363;28;20085;-37
2023/02/03 06:55:05;;;;;;;15.77;6.93;;;;;;;4.40;68.71;100618.31;5092381;28;20059;-37
2023/02/03 06:57:31;;;;;;;8.23;4.60;;;;;;;4.54;68.21;100618.66;5092018;28;20070;-37
2023/02/03 06:59:56;;;;;;;6.75;3.97;;;;;;;4.56;66.90;100592.91;5092317;28;20032;-36
2023/02/03 07:02:21;;;;;;;6.25;3.40;;;;;;;4.61;66.85;100619.63;5073613;28;20024;-37
2023/02/03 07:04:47;;;;;;;9.98;4.82;;;;;;;4.54;67.67;100634.50;5092290;28;20403;-36
2023/02/03 07:07:14;;;;;;;6.65;3.75;;;;;;;4.83;66.88;100640.06;5092190;28;20036;-37
2023/02/03 07:09:41;;;;;;;8.77;5.53;;;;;;;5.04;66.44;100625.50;5091970;28;20480;-37
2023/02/03 07:12:10;;;;;;;6.63;3.90;;;;;;;5.27;65.29;100645.94;5073831;28;20055;-37
2023/02/03 07:14:37;;;;;;;7.57;4.40;;;;;;;5.55;64.89;100641.88;5073386;28;20028;-37
2023/02/03 07:17:02;;;;;;;9.38;4.43;;;;;;;5.41;64.48;100638.13;5091867;28;20052;-37
2023/02/03 07:19:28;;;;;;;12.48;5.53;;;;;;;5.42;64.16;100633.66;5091965;28;20506;-37
2023/02/03 07:21:53;;;;;;;9.20;4.47;;;;;;;5.78;62.98;100649.03;5073887;28;20113;-37
2023/02/03 07:24:19;;;;;;;8.50;3.25;;;;;;;6.03;62.04;100642.66;5091714;28;20518;-37
2023/02/03 07:26:44;;;;;;;6.43;3.72;;;;;;;5.95;61.20;100628.66;5091400;28;20017;-37
2023/02/03 07:29:10;;;;;;;6.72;3.72;;;;;;;6.08;60.07;100630.72;5073284;28;20475;-37
2023/02/03 07:31:35;;;;;;;8.70;4.70;;;;;;;6.10;60.41;100636.66;5091087;28;20024;-37
2023/02/03 07:34:01;;;;;;;7.95;3.67;;;;;;;6.01;60.76;100649.94;5091630;28;20038;-37
2023/02/03 07:36:27;;;;;;;6.63;3.35;;;;;;;6.00;60.26;100644.81;5073241;28;20028;-37
2023/02/03 07:38:53;;;;;;;5.68;2.90;;;;;;;5.94;59.69;100634.91;5091450;28;20052;-37
2023/02/03 07:41:19;;;;;;;5.47;3.42;;;;;;;6.08;59.87;100596.28;5090908;28;20053;-37
2023/02/03 07:43:45;;;;;;;4.95;3.28;;;;;;;6.27;59.32;100642.66;5091372;28;20028;-37
2023/02/03 07:46:10;;;;;;;7.00;3.53;;;;;;;6.18;59.15;100616.22;5090992;28;20465;-37
2023/02/03 07:48:36;;;;;;;6.65;3.42;;;;;;;6.30;59.16;100640.50;5091191;28;20115;-37
2023/02/03 07:51:01;;;;;;;5.72;3.22;;;;;;;6.41;58.78;100640.06;5091132;28;20032;-37
2023/02/03 07:53:26;;;;;;;6.20;3.15;;;;;;;6.43;58.73;100616.88;5091176;28;20028;-37
2023/02/03 07:55:52;;;;;;;5.57;2.90;;;;;;;6.77;57.51;100654.53;5091006;28;20020;-37
2023/02/03 07:58:17;;;;;;;6.85;3.63;;;;;;;6.81;57.14;100650.53;5090188;28;20044;-37
2023/02/03 08:00:43;;;;;;;4.88;2.67;;;;;;;6.95;57.31;100635.66;5090801;28;20022;-37
2023/02/03 08:03:09;;;;;;;4.82;2.90;;;;;;;7.11;57.07;100640.78;5091089;28;20106;-37
2023/02/03 08:05:34;;;;;;;5.72;2.92;;;;;;;7.10;56.22;100649.72;5090940;28;20046;-37
2023/02/03 08:08:03;;;;;;;4.40;3.00;;;;;;;6.89;57.81;100617.81;5090968;28;20052;-37
2023/02/03 08:10:28;;;;;;;5.03;2.90;;;;;;;7.33;57.15;100632.91;5090944;28;20515;-36
2023/02/03 08:12:56;;;;;;;5.53;3.00;;;;;;;7.71;55.64;100632.78;5090701;28;20159;-37
2023/02/03 08:15:21;;;;;;;5.80;2.25;;;;;;;7.35;54.32;100652.13;5090278;28;20059;-37
2023/02/03 08:17:50;;;;;;;8.23;3.17;;;;;;;7.21;55.00;100632.53;5090957;28;20056;-37
2023/02/03 08:20:16;;;;;;;6.60;2.63;;;;;;;7.55;53.46;100644.44;5072375;28;20024;-37
2023/02/03 08:22:41;;;;;;;6.50;3.58;;;;;;;7.70;52.21;100618.66;5090640;28;20035;-37
2023/02/03 08:25:08;;;;;;;8.05;3.60;;;;;;;7.75;51.67;100664.09;5090247;28;20031;-36
2023/02/03 08:27:33;;;;;;;7.22;2.90;;;;;;;7.44;53.04;100645.72;5090298;28;20066;-36
2023/02/03 08:29:59;;;;;;;6.05;2.70;;;;;;;7.71;53.75;100662.81;5090214;28;20513;-37
2023/02/03 08:32:25;;;;;;;13.20;4.57;;;;;;;7.65;53.61;100653.75;5090750;28;20040;-37
2023/02/03 08:34:51;;;;;;;11.10;4.90;;;;;;;7.76;52.82;100680.81;5090123;28;20404;-37
2023/02/03 08:37:19;;;;;;;14.65;6.68;;;;;;;7.39;53.77;100646.25;5090112;28;20032;-36
2023/02/03 08:39:45;;;;;;;4.80;3.08;;;;;;;7.70;52.88;100665.63;5090498;28;20056;-37
2023/02/03 08:42:10;;;;;;;12.20;5.32;;;;;;;7.69;53.89;100634.81;5089970;28;20024;-37
2023/02/03 08:44:37;;;;;;;7.55;3.63;;;;;;;8.05;51.29;100658.72;5071759;28;20043;-37
2023/02/03 08:47:04;;;;;;;7.78;3.85;;;;;;;7.90;51.54;100679.97;5090014;28;20111;-37
2023/02/03 08:49:30;;;;;;;7.65;3.63;;;;;;;7.62;51.97;100683.31;5090023;28;20032;-37
2023/02/03 08:51:56;;;;;;;8.95;4.03;;;;;;;7.32;51.73;100668.41;5089966;28;20024;-37
2023/02/03 08:54:23;;;;;;;11.82;5.57;;;;;;;7.59;51.74;100680.22;5089937;28;20126;-36
2023/02/03 08:56:49;;;;;;;7.75;3.92;;;;;;;8.17;51.87;100698.88;5089621;28;20020;-36
2023/02/03 08:59:15;;;;;;;13.15;6.38;;;;;;;8.55;51.52;100701.34;5089779;28;20039;-37
2023/02/03 09:01:44;;;;;;;5.07;2.90;;;;;;;8.80;50.63;100704.44;5090047;28;20024;-36
2023/02/03 09:04:10;;;;;;;5.78;2.50;;;;;;;8.41;50.09;100695.91;5089809;28;20142;-36
2023/02/03 09:06:36;;;;;;;4.05;2.78;;;;;;;8.70;49.82;100710.06;5089822;28;20031;-37
2023/02/03 09:09:03;;;;;;;4.45;2.40;;;;;;;8.94;48.30;100716.84;5088638;28;20107;-36
2023/02/03 09:11:28;;;;;;;3.97;2.30;;;;;;;8.25;48.20;100717.38;5089276;28;20035;-36
2023/02/03 09:13:55;;;;;;;7.13;3.22;;;;;;;8.15;49.27;100684.97;5089593;28;20034;-36
2023/02/03 09:16:21;;;;;;;4.10;1.90;;;;;;;8.37;47.38;100710.53;5089657;28;20026;-37
2023/02/03 09:18:49;;;;;;;2.72;1.88;;;;;;;8.32;48.67;100691.69;5089593;28;20035;-37
2023/02/03 09:21:15;;;;;;;6.28;2.97;;;;;;;8.39;50.12;100694.41;5089192;28;20020;-36
2023/02/03 09:23:42;;;;;;;5.60;2.40;;;;;;;8.39;49.81;100705.88;5089380;28;20086;-37
2023/02/03 09:26:10;;;;;;;6.15;3.05;;;;;;;8.85;49.29;100699.38;5071119;28;20066;-37
2023/02/03 09:28:36;;;;;;;5.60;2.58;;;;;;;9.10;47.36;100690.97;5089587;28;20059;-35
2023/02/03 09:31:09;;;;;;;4.45;3.05;;;;;;;9.51;48.56;100701.69;5089197;28;20176;-36
2023/02/03 09:33:36;;;;;;;6.13;2.95;;;;;;;9.13;48.48;100677.28;5089212;28;20032;-37
2023/02/03 09:36:02;;;;;;;5.88;3.08;;;;;;;9.27;47.57;100702.16;5089438;28;20081;-36
2023/02/03 09:38:28;;;;;;;3.00;2.05;;;;;;;8.85;47.15;100697.53;5089107;28;20115;-37
2023/02/03 09:41:11;;;;;;;1.83;1.38;;;;;;;8.80;45.98;100683.16;5070847;28;20124;-37
2023/02/03 09:43:52;;;;;;;2.03;1.30;;;;;;;9.14;44.21;100705.53;5089183;28;20028;-37
2023/02/03 09:46:22;;;;;;;1.63;1.30;;;;;;;9.14;44.05;100710.88;5071268;28;20027;-37
2023/02/03 09:48:52;;;;;;;3.38;1.52;;;;;;;9.04;43.93;100685.41;5089108;28;20036;-37
2023/02/03 09:51:33;;;;;;;3.38;1.63;;;;;;;9.07;46.97;100702.00;5088754;28;20028;-37
2023/02/03 09:54:16;;;;;;;3.42;1.67;;;;;;;8.62;45.44;100676.50;5089138;28;20039;-37
2023/02/03 09:56:51;;;;;;;3.20;1.60;;;;;;;8.24;44.90;100683.84;5088860;28;20046;-37
2023/02/03 09:59:17;;;;;;;3.05;1.77;;;;;;;8.24;45.59;100683.84;5088716;28;20040;-37
2023/02/03 10:01:54;;;;;;;3.30;1.75;;;;;;;7.98;45.80;100685.19;5088703;28;20123;-37
2023/02/03 10:04:42;;;;;;;3.75;1.65;;;;;;;8.13;45.98;100686.97;5089100;28;20377;-36
2023/02/03 10:07:37;;;;;;;3.58;1.95;;;;;;;8.88;45.61;100690.19;5070820;28;20024;-37
2023/02/03 10:10:30;;;;;;;3.55;1.50;;;;;;;9.58;44.75;100659.94;5088733;28;20487;-36
2023/02/03 10:13:05;;;;;;;3.13;1.67;;;;;;;9.53;43.66;100686.34;5088940;28;20487;-37
2023/02/03 10:16:00;;;;;;;3.22;1.85;;;;;;;9.30;45.51;100678.63;5088821;28;20454;-37
2023/02/03 10:18:40;;;;;;;2.67;1.60;;;;;;;9.09;44.02;100682.16;5089092;28;20037;-36
2023/02/03 10:21:18;;;;;;;1.95;1.45;;;;;;;9.01;43.62;100687.63;5090993;28;20085;-36
2023/02/03 10:23:47;;;;;;;2.67;1.40;;;;;;;8.52;45.02;100672.47;5093005;28;20020;-36
2023/02/03 10:26:26;;;;;;;2.22;1.45;;;;;;;8.69;45.04;100687.19;5092487;28;20036;-36
2023/02/03 10:29:04;;;;;;;3.45;1.65;;;;;;;8.79;44.02;100682.34;5092701;28;20031;-37
2023/02/03 10:31:35;;;;;;;3.08;1.77;;;;;;;8.85;45.11;100665.63;5092687;28;20115;-37
2023/02/03 10:34:12;;;;;;;3.20;1.85;;;;;;;8.66;44.78;100666.28;5074560;28;20569;-36
2023/02/03 10:36:57;;;;;;;3.85;1.73;;;;;;;8.69;44.77;100675.72;5092724;28;20063;-37
2023/02/03 10:39:29;;;;;;;3.38;1.95;;;;;;;8.63;43.92;100677.31;5092468;28;20047;-36
2023/02/03 10:41:55;;;;;;;3.20;2.00;;;;;;;8.63;44.90;100653.38;5074508;28;20568;-36
2023/02/03 10:44:30;;;;;;;3.10;1.80;;;;;;;8.49;44.10;100662.25;5092571;28;20048;-37
2023/02/03 10:46:56;;;;;;;3.38;1.60;;;;;;;8.20;43.88;100667.44;5092466;28;20028;-37
2023/02/03 10:49:25;;;;;;;2.97;1.67;;;;;;;8.03;45.79;100664.22;5074034;28;20077;-37
2023/02/03 10:51:51;;;;;;;6.05;2.60;;;;;;;8.33;45.42;100661.44;5092452;28;20031;-37
2023/02/03 10:54:32;;;;;;;4.30;2.45;;;;;;;8.19;45.61;100655.19;5092484;28;20059;-37
2023/02/03 10:57:03;;;;;;;3.83;1.92;;;;;;;8.60;44.36;100651.09;5092404;28;20031;-37
2023/02/03 10:59:39;;;;;;;4.35;2.30;;;;;;;9.87;43.82;100658.03;5092132;28;20093;-36
2023/02/03 11:02:20;;;;;;;2.85;1.58;;;;;;;10.60;40.76;100628.88;5091947;28;20062;-37
2023/02/03 11:04:45;;;;;;;3.70;1.88;;;;;;;10.61;39.74;100659.84;5091980;28;20756;-37
2023/02/03 11:07:24;;;;;;;3.13;1.60;;;;;;;10.28;39.28;100651.78;5092300;28;20028;-36
2023/02/03 11:09:54;;;;;;;;;;;;;;;10.09;40.03;100642.69;5074336;28;20028;-36
2023/02/03 11:12:20;;;;;;;5.10;1.83;;;;;;;10.39;39.27;100629.88;5092000;28;19908;-37
2023/02/03 11:14:47;;;;;;;17.23;7.70;;;;;;;10.69;39.77;100634.81;5091941;28;20118;-36
2023/02/03 11:17:16;;;;;;;4.22;1.90;;;;;;;10.00;39.76;100636.72;5092117;28;20031;-37
2023/02/03 11:19:45;;;;;;;1.80;1.40;;;;;;;9.32;41.03;100633.19;5091719;28;20411;-37
2023/02/03 11:22:15;;;;;;;5.45;2.20;;;;;;;9.25;41.70;100631.31;5092018;28;20059;-37
2023/02/03 11:24:42;;;;;;;3.35;1.73;;;;;;;9.22;41.66;100642.34;5091770;28;20024;-36
2023/02/03 11:27:18;;;;;;;3.53;1.90;;;;;;;9.02;41.41;100638.72;5091549;28;20511;-36
2023/02/03 11:29:46;;;;;;;3.35;1.80;;;;;;;8.97;42.20;100615.38;5092032;28;20028;-36
2023/02/03 11:32:34;;;;;;;3.55;1.90;;;;;;;9.97;41.40;100636.31;5090455;28;20047;-36
2023/02/03 11:35:01;;;;;;;2.67;2.03;;;;;;;10.76;40.76;100645.47;5091373;28;20028;-36
2023/02/03 11:37:36;;;;;;;2.25;1.40;;;;;;;10.70;36.59;100644.44;5091165;28;20047;-36
2023/02/03 11:40:09;;;;;;;2.88;1.60;;;;;;;10.74;37.18;100631.53;5091478;28;20036;-37
2023/02/03 11:42:37;;;;;;;3.22;1.10;;;;;;;10.76;35.98;100645.47;5091341;28;20139;-37
2023/02/03 11:45:13;;;;;;;2.50;1.40;;;;;;;11.05;36.08;100628.19;5091420;28;20028;-36
2023/02/03 11:47:48;;;;;;;2.08;1.10;;;;;;;11.45;33.46;100628.09;5091310;28;20020;-36